sensor_id;sensor_type;location;lat;lon;timestamp;pressure;altitude;pressure_sealevel;temperature;humidity
1726;BME280;41776;48.260;8.928;2023-04-21T00:01:30;52636.50;;;-145.69;100.00
1726;BME280;41776;48.260;8.928;2023-04-21T00:03:59;52563.22;;;-145.69;100.00
1726;BME280;41776;48.260;8.928;2023-04-21T00:06:25;52606.78;;;-145.69;100.00
1726;BME280;41776;48.260;8.928;2023-04-21T00:08:52;52598.84;;;-145.69;100.00
1726;BME280;41776;48.260;8.928;2023-04-21T00:11:20;52620.66;;;-145.69;100.00
1726;BME280;41776;48.260;8.928;2023-04-21T00:13:47;52642.44;;;-145.69;100.00
1726;BME280;41776;48.260;8.928;2023-04-21T00:16:13;52638.47;;;-145.69;100.00
1726;BME280;41776;48.260;8.928;2023-04-21T00:18:41;52614.72;;;-145.69;100.00
1726;BME280;41776;48.260;8.928;2023-04-21T00:21:08;52602.81;;;-145.69;100.00
1726;BME280;41776;48.260;8.928;2023-04-21T00:23:34;52614.72;;;-145.69;100.00
1726;BME280;41776;48.260;8.928;2023-04-21T00:26:01;52614.72;;;-145.69;100.00
1726;BME280;41776;48.260;8.928;2023-04-21T00:28:29;52616.69;;;-145.69;100.00
1726;BME280;41776;48.260;8.928;2023-04-21T00:30:55;52642.44;;;-145.69;100.00
1726;BME280;41776;48.260;8.928;2023-04-21T00:33:24;52622.63;;;-145.69;100.00
1726;BME280;41776;48.260;8.928;2023-04-21T00:35:53;52638.47;;;-145.69;100.00
1726;BME280;41776;48.260;8.928;2023-04-21T00:38:21;52622.63;;;-145.69;100.00
1726;BME280;41776;48.260;8.928;2023-04-21T00:40:47;52624.59;;;-145.69;100.00
1726;BME280;41776;48.260;8.928;2023-04-21T00:43:14;52583.00;;;-145.69;100.00
1726;BME280;41776;48.260;8.928;2023-04-21T00:45:44;52638.47;;;-145.69;100.00
1726;BME280;41776;48.260;8.928;2023-04-21T00:48:11;52620.66;;;-145.69;100.00
1726;BME280;41776;48.260;8.928;2023-04-21T00:50:37;52602.81;;;-145.69;100.00
1726;BME280;41776;48.260;8.928;2023-04-21T00:53:04;52579.06;;;-145.69;100.00
1726;BME280;41776;48.260;8.928;2023-04-21T00:55:31;52602.81;;;-145.69;100.00
1726;BME280;41776;48.260;8.928;2023-04-21T00:57:58;52626.59;;;-145.69;100.00
1726;BME280;41776;48.260;8.928;2023-04-21T01:00:25;52590.94;;;-145.69;100.00
1726;BME280;41776;48.260;8.928;2023-04-21T01:02:53;52594.91;;;-145.69;100.00
1726;BME280;41776;48.260;8.928;2023-04-21T01:05:19;52642.44;;;-145.69;100.00
1726;BME280;41776;48.260;8.928;2023-04-21T01:07:48;52622.63;;;-145.69;100.00
1726;BME280;41776;48.260;8.928;2023-04-21T01:10:15;52600.84;;;-145.69;100.00
1726;BME280;41776;48.260;8.928;2023-04-21T01:12:44;52626.59;;;-145.69;100.00
1726;BME280;41776;48.260;8.928;2023-04-21T01:15:12;52598.84;;;-145.69;100.00
1726;BME280;41776;48.260;8.928;2023-04-21T01:17:39;52606.78;;;-145.69;100.00
1726;BME280;41776;48.260;8.928;2023-04-21T01:20:09;52626.59;;;-145.69;100.00
1726;BME280;41776;48.260;8.928;2023-04-21T01:22:39;52598.84;;;-145.69;100.00
1726;BME280;41776;48.260;8.928;2023-04-21T01:25:12;52608.75;;;-145.69;100.00
1726;BME280;41776;48.260;8.928;2023-04-21T01:27:39;52650.34;;;-145.69;100.00
1726;BME280;41776;48.260;8.928;2023-04-21T01:30:09;52644.41;;;-145.69;100.00
1726;BME280;41776;48.260;8.928;2023-04-21T01:32:35;52612.72;;;-145.69;100.00
1726;BME280;41776;48.260;8.928;2023-04-21T01:35:02;52634.50;;;-145.69;100.00
1726;BME280;41776;48.260;8.928;2023-04-21T01:37:31;52630.53;;;-145.69;100.00
1726;BME280;41776;48.260;8.928;2023-04-21T01:40:07;52602.81;;;-145.69;100.00
1726;BME280;41776;48.260;8.928;2023-04-21T01:42:36;52644.41;;;-145.69;100.00
1726;BME280;41776;48.260;8.928;2023-04-21T01:45:03;52618.66;;;-145.69;100.00
1726;BME280;41776;48.260;8.928;2023-04-21T01:47:33;52652.34;;;-145.69;100.00
1726;BME280;41776;48.260;8.928;2023-04-21T01:49:59;52616.69;;;-145.69;100.00
1726;BME280;41776;48.260;8.928;2023-04-21T01:52:26;52636.50;;;-145.69;100.00
1726;BME280;41776;48.260;8.928;2023-04-21T01:54:53;52656.28;;;-145.69;100.00
1726;BME280;41776;48.260;8.928;2023-04-21T01:57:21;52614.72;;;-145.69;100.00
1726;BME280;41776;48.260;8.928;2023-04-21T01:59:50;52638.47;;;-145.69;100.00
1726;BME280;41776;48.260;8.928;2023-04-21T02:02:17;52616.69;;;-145.69;100.00
1726;BME280;41776;48.260;8.928;2023-04-21T02:04:43;52646.41;;;-145.69;100.00
1726;BME280;41776;48.260;8.928;2023-04-21T02:07:12;52622.63;;;-145.69;100.00
1726;BME280;41776;48.260;8.928;2023-04-21T02:09:41;52620.66;;;-145.69;100.00
1726;BME280;41776;48.260;8.928;2023-04-21T02:12:08;52586.97;;;-145.69;100.00
1726;BME280;41776;48.260;8.928;2023-04-21T02:14:37;52638.47;;;-145.69;100.00
1726;BME280;41776;48.260;8.928;2023-04-21T02:17:06;52610.75;;;-145.69;100.00
1726;BME280;41776;48.260;8.928;2023-04-21T02:19:33;52612.72;;;-145.69;100.00
1726;BME280;41776;48.260;8.928;2023-04-21T02:21:59;52628.56;;;-145.69;100.00
1726;BME280;41776;48.260;8.928;2023-04-21T02:24:26;52612.72;;;-145.69;100.00
1726;BME280;41776;48.260;8.928;2023-04-21T02:26:52;52620.66;;;-145.69;100.00
1726;BME280;41776;48.260;8.928;2023-04-21T02:29:19;52630.53;;;-145.69;100.00
1726;BME280;41776;48.260;8.928;2023-04-21T02:31:47;52646.41;;;-145.69;100.00
1726;BME280;41776;48.260;8.928;2023-04-21T02:34:13;52618.66;;;-145.69;100.00
1726;BME280;41776;48.260;8.928;2023-04-21T02:36:40;52614.72;;;-145.69;100.00
1726;BME280;41776;48.260;8.928;2023-04-21T02:39:06;52654.31;;;-145.69;100.00
1726;BME280;41776;48.260;8.928;2023-04-21T02:41:35;52638.47;;;-145.69;100.00
1726;BME280;41776;48.260;8.928;2023-04-21T02:44:02;52622.63;;;-145.69;100.00
1726;BME280;41776;48.260;8.928;2023-04-21T02:46:29;52658.28;;;-145.69;100.00
1726;BME280;41776;48.260;8.928;2023-04-21T02:48:57;52646.41;;;-145.69;100.00
1726;BME280;41776;48.260;8.928;2023-04-21T02:51:26;52638.47;;;-145.69;100.00
1726;BME280;41776;48.260;8.928;2023-04-21T02:53:53;52616.69;;;-145.69;100.00
1726;BME280;41776;48.260;8.928;2023-04-21T02:56:22;52638.47;;;-145.69;100.00
1726;BME280;41776;48.260;8.928;2023-04-21T02:58:49;52622.63;;;-145.69;100.00
1726;BME280;41776;48.260;8.928;2023-04-21T03:01:16;52636.50;;;-145.69;100.00
1726;BME280;41776;48.260;8.928;2023-04-21T03:03:42;52630.53;;;-145.69;100.00
1726;BME280;41776;48.260;8.928;2023-04-21T03:06:11;52648.38;;;-145.69;100.00
1726;BME280;41776;48.260;8.928;2023-04-21T03:08:40;52632.53;;;-145.69;100.00
1726;BME280;41776;48.260;8.928;2023-04-21T03:11:07;52646.41;;;-145.69;100.00
1726;BME280;41776;48.260;8.928;2023-04-21T03:13:34;52612.72;;;-145.69;100.00
1726;BME280;41776;48.260;8.928;2023-04-21T03:16:03;52612.72;;;-145.69;100.00
1726;BME280;41776;48.260;8.928;2023-04-21T03:18:33;52634.50;;;-145.69;100.00
1726;BME280;41776;48.260;8.928;2023-04-21T03:21:00;52642.44;;;-145.69;100.00
1726;BME280;41776;48.260;8.928;2023-04-21T03:23:28;52626.59;;;-145.69;100.00
1726;BME280;41776;48.260;8.928;2023-04-21T03:25:54;52622.63;;;-145.69;100.00
1726;BME280;41776;48.260;8.928;2023-04-21T03:28:20;52662.22;;;-145.69;100.00
1726;BME280;41776;48.260;8.928;2023-04-21T03:30:47;52642.44;;;-145.69;100.00
1726;BME280;41776;48.260;8.928;2023-04-21T03:33:16;52626.59;;;-145.69;100.00
1726;BME280;41776;48.260;8.928;2023-04-21T03:35:42;52620.66;;;-145.69;100.00
1726;BME280;41776;48.260;8.928;2023-04-21T03:38:09;52654.31;;;-145.69;100.00
1726;BME280;41776;48.260;8.928;2023-04-21T03:40:37;52646.41;;;-145.69;100.00
1726;BME280;41776;48.260;8.928;2023-04-21T03:43:03;52650.34;;;-145.69;100.00
1726;BME280;41776;48.260;8.928;2023-04-21T03:45:32;52624.59;;;-145.69;100.00
1726;BME280;41776;48.260;8.928;2023-04-21T03:47:59;52636.50;;;-145.69;100.00
1726;BME280;41776;48.260;8.928;2023-04-21T03:50:26;52628.56;;;-145.69;100.00
1726;BME280;41776;48.260;8.928;2023-04-21T03:52:54;52680.06;;;-145.69;100.00
1726;BME280;41776;48.260;8.928;2023-04-21T03:55:22;52636.50;;;-145.69;100.00
1726;BME280;41776;48.260;8.928;2023-04-21T03:57:50;52652.34;;;-145.69;100.00
1726;BME280;41776;48.260;8.928;2023-04-21T04:00:25;52618.66;;;-145.69;100.00
1726;BME280;41776;48.260;8.928;2023-04-21T04:02:52;52620.66;;;-145.69;100.00
1726;BME280;41776;48.260;8.928;2023-04-21T04:05:20;52598.84;;;-145.69;100.00
1726;BME280;41776;48.260;8.928;2023-04-21T04:07:46;52668.19;;;-145.69;100.00
1726;BME280;41776;48.260;8.928;2023-04-21T04:10:13;52662.22;;;-145.69;100.00
1726;BME280;41776;48.260;8.928;2023-04-21T04:12:41;52668.19;;;-145.69;100.00
1726;BME280;41776;48.260;8.928;2023-04-21T04:15:10;52622.63;;;-145.69;100.00
1726;BME280;41776;48.260;8.928;2023-04-21T04:17:37;52630.53;;;-145.69;100.00
1726;BME280;41776;48.260;8.928;2023-04-21T04:20:08;52608.75;;;-145.69;100.00
1726;BME280;41776;48.260;8.928;2023-04-21T04:22:37;52616.69;;;-145.69;100.00
1726;BME280;41776;48.260;8.928;2023-04-21T04:25:04;52686.00;;;-145.69;100.00
1726;BME280;41776;48.260;8.928;2023-04-21T04:27:33;52604.81;;;-145.69;100.00
1726;BME280;41776;48.260;8.928;2023-04-21T04:30:02;52622.63;;;-145.69;100.00
1726;BME280;41776;48.260;8.928;2023-04-21T04:32:32;52622.63;;;-145.69;100.00
1726;BME280;41776;48.260;8.928;2023-04-21T04:34:59;52626.59;;;-145.69;100.00
1726;BME280;41776;48.260;8.928;2023-04-21T04:37:26;52632.53;;;-145.69;100.00
1726;BME280;41776;48.260;8.928;2023-04-21T04:39:55;52650.34;;;-145.69;100.00
1726;BME280;41776;48.260;8.928;2023-04-21T04:42:22;52630.53;;;-145.69;100.00
1726;BME280;41776;48.260;8.928;2023-04-21T04:44:54;52620.66;;;-145.69;100.00
1726;BME280;41776;48.260;8.928;2023-04-21T04:47:21;52646.41;;;-145.69;100.00
1726;BME280;41776;48.260;8.928;2023-04-21T04:49:49;52620.66;;;-145.69;100.00
1726;BME280;41776;48.260;8.928;2023-04-21T04:52:18;52654.31;;;-145.69;100.00
1726;BME280;41776;48.260;8.928;2023-04-21T04:54:45;52682.03;;;-145.69;100.00
1726;BME280;41776;48.260;8.928;2023-04-21T04:57:19;52646.41;;;-145.69;100.00
1726;BME280;41776;48.260;8.928;2023-04-21T04:59:53;52618.66;;;-145.69;100.00
1726;BME280;41776;48.260;8.928;2023-04-21T05:02:23;52666.19;;;-145.69;100.00
1726;BME280;41776;48.260;8.928;2023-04-21T05:04:52;52642.44;;;-145.69;100.00
1726;BME280;41776;48.260;8.928;2023-04-21T05:07:19;52608.75;;;-145.69;100.00
1726;BME280;41776;48.260;8.928;2023-04-21T05:09:45;52612.72;;;-145.69;100.00
1726;BME280;41776;48.260;8.928;2023-04-21T05:12:12;52581.03;;;-145.69;100.00
1726;BME280;41776;48.260;8.928;2023-04-21T05:14:38;52590.94;;;-145.69;100.00
1726;BME280;41776;48.260;8.928;2023-04-21T05:17:08;52610.75;;;-145.69;100.00
1726;BME280;41776;48.260;8.928;2023-04-21T05:19:34;52646.41;;;-145.69;100.00
1726;BME280;41776;48.260;8.928;2023-04-21T05:22:03;52596.88;;;-145.69;100.00
1726;BME280;41776;48.260;8.928;2023-04-21T05:24:31;52636.50;;;-145.69;100.00
1726;BME280;41776;48.260;8.928;2023-04-21T05:26:57;52616.69;;;-145.69;100.00
1726;BME280;41776;48.260;8.928;2023-04-21T05:29:26;52606.78;;;-145.69;100.00
1726;BME280;41776;48.260;8.928;2023-04-21T05:31:52;52608.75;;;-145.69;100.00
1726;BME280;41776;48.260;8.928;2023-04-21T05:34:19;52630.53;;;-145.69;100.00
1726;BME280;41776;48.260;8.928;2023-04-21T05:36:45;52598.84;;;-145.69;100.00
1726;BME280;41776;48.260;8.928;2023-04-21T05:39:14;52632.53;;;-145.69;100.00
1726;BME280;41776;48.260;8.928;2023-04-21T05:41:42;52642.44;;;-145.69;100.00
1726;BME280;41776;48.260;8.928;2023-04-21T05:44:11;52606.78;;;-145.69;100.00
1726;BME280;41776;48.260;8.928;2023-04-21T05:46:37;52618.66;;;-145.69;100.00
1726;BME280;41776;48.260;8.928;2023-04-21T05:49:04;52622.63;;;-145.69;100.00
1726;BME280;41776;48.260;8.928;2023-04-21T05:51:36;52618.66;;;-145.69;100.00
1726;BME280;41776;48.260;8.928;2023-04-21T05:54:06;52646.41;;;-145.69;100.00
1726;BME280;41776;48.260;8.928;2023-04-21T05:56:37;52642.44;;;-145.69;100.00
1726;BME280;41776;48.260;8.928;2023-04-21T05:59:04;52585.00;;;-145.69;100.00
1726;BME280;41776;48.260;8.928;2023-04-21T06:01:33;52642.44;;;-145.69;100.00
1726;BME280;41776;48.260;8.928;2023-04-21T06:04:02;52650.34;;;-145.69;100.00
1726;BME280;41776;48.260;8.928;2023-04-21T06:06:28;52614.72;;;-145.69;100.00
1726;BME280;41776;48.260;8.928;2023-04-21T06:08:57;52606.78;;;-145.69;100.00
1726;BME280;41776;48.260;8.928;2023-04-21T06:11:30;52598.84;;;-145.69;100.00
1726;BME280;41776;48.260;8.928;2023-04-21T06:13:59;52626.59;;;-145.69;100.00
1726;BME280;41776;48.260;8.928;2023-04-21T06:16:26;52602.81;;;-145.69;100.00
1726;BME280;41776;48.260;8.928;2023-04-21T06:18:56;52638.47;;;-145.69;100.00
1726;BME280;41776;48.260;8.928;2023-04-21T06:21:25;52598.84;;;-145.69;100.00
1726;BME280;41776;48.260;8.928;2023-04-21T06:23:54;52636.50;;;-145.69;100.00
1726;BME280;41776;48.260;8.928;2023-04-21T06:26:21;52626.59;;;-145.69;100.00
1726;BME280;41776;48.260;8.928;2023-04-21T06:28:47;52588.97;;;-145.69;100.00
1726;BME280;41776;48.260;8.928;2023-04-21T06:31:15;52602.81;;;-145.69;100.00
1726;BME280;41776;48.260;8.928;2023-04-21T06:33:44;52654.31;;;-145.69;100.00
1726;BME280;41776;48.260;8.928;2023-04-21T06:36:10;52626.59;;;-145.69;100.00
1726;BME280;41776;48.260;8.928;2023-04-21T06:38:39;52586.97;;;-145.69;100.00
1726;BME280;41776;48.260;8.928;2023-04-21T06:41:09;52626.59;;;-145.69;100.00
1726;BME280;41776;48.260;8.928;2023-04-21T06:43:38;52575.09;;;-145.69;100.00
1726;BME280;41776;48.260;8.928;2023-04-21T06:46:05;52614.72;;;-145.69;100.00
1726;BME280;41776;48.260;8.928;2023-04-21T06:48:34;52590.94;;;-145.69;100.00
1726;BME280;41776;48.260;8.928;2023-04-21T06:51:04;52610.75;;;-145.69;100.00
1726;BME280;41776;48.260;8.928;2023-04-21T06:53:36;52590.94;;;-145.69;100.00
1726;BME280;41776;48.260;8.928;2023-04-21T06:56:06;52632.53;;;-145.69;100.00
1726;BME280;41776;48.260;8.928;2023-04-21T06:58:33;52602.81;;;-145.69;100.00
1726;BME280;41776;48.260;8.928;2023-04-21T07:01:00;52616.69;;;-145.69;100.00
1726;BME280;41776;48.260;8.928;2023-04-21T07:03:27;52614.72;;;-145.69;100.00
1726;BME280;41776;48.260;8.928;2023-04-21T07:05:55;52598.84;;;-145.69;100.00
1726;BME280;41776;48.260;8.928;2023-04-21T07:08:21;52622.63;;;-145.69;100.00
1726;BME280;41776;48.260;8.928;2023-04-21T07:10:48;52565.19;;;-145.69;100.00
1726;BME280;41776;48.260;8.928;2023-04-21T07:13:14;52602.81;;;-145.69;100.00
1726;BME280;41776;48.260;8.928;2023-04-21T07:15:42;52590.94;;;-145.69;100.00
1726;BME280;41776;48.260;8.928;2023-04-21T07:18:08;52600.84;;;-145.69;100.00
1726;BME280;41776;48.260;8.928;2023-04-21T07:20:35;52624.59;;;-145.69;100.00
1726;BME280;41776;48.260;8.928;2023-04-21T07:23:03;52563.22;;;-145.69;100.00
1726;BME280;41776;48.260;8.928;2023-04-21T07:25:29;52579.06;;;-145.69;100.00
1726;BME280;41776;48.260;8.928;2023-04-21T07:27:56;52614.72;;;-145.69;100.00
1726;BME280;41776;48.260;8.928;2023-04-21T07:30:23;52602.81;;;-145.69;100.00
1726;BME280;41776;48.260;8.928;2023-04-21T07:32:49;52573.13;;;-145.69;100.00
1726;BME280;41776;48.260;8.928;2023-04-21T07:35:21;52581.03;;;-145.69;100.00
1726;BME280;41776;48.260;8.928;2023-04-21T07:37:47;52592.91;;;-145.69;100.00
1726;BME280;41776;48.260;8.928;2023-04-21T07:40:15;52588.97;;;-145.69;100.00
1726;BME280;41776;48.260;8.928;2023-04-21T07:42:42;52561.22;;;-145.69;100.00
1726;BME280;41776;48.260;8.928;2023-04-21T07:45:09;52575.09;;;-145.69;100.00
1726;BME280;41776;48.260;8.928;2023-04-21T07:47:36;52586.97;;;-145.69;100.00
1726;BME280;41776;48.260;8.928;2023-04-21T07:50:03;52577.06;;;-145.69;100.00
1726;BME280;41776;48.260;8.928;2023-04-21T07:52:32;52569.16;;;-145.69;100.00
1726;BME280;41776;48.260;8.928;2023-04-21T07:54:58;52571.13;;;-145.69;100.00
1726;BME280;41776;48.260;8.928;2023-04-21T07:57:26;52551.31;;;-145.69;100.00
1726;BME280;41776;48.260;8.928;2023-04-21T07:59:53;52563.22;;;-145.69;100.00
1726;BME280;41776;48.260;8.928;2023-04-21T08:02:19;52571.13;;;-145.69;100.00
1726;BME280;41776;48.260;8.928;2023-04-21T08:04:46;52569.16;;;-145.69;100.00
1726;BME280;41776;48.260;8.928;2023-04-21T08:07:12;52551.31;;;-145.69;100.00
1726;BME280;41776;48.260;8.928;2023-04-21T08:09:39;52567.16;;;-145.69;100.00
1726;BME280;41776;48.260;8.928;2023-04-21T08:12:06;52583.00;;;-145.69;100.00
1726;BME280;41776;48.260;8.928;2023-04-21T08:14:34;52537.47;;;-145.69;100.00
1726;BME280;41776;48.260;8.928;2023-04-21T08:17:00;52557.28;;;-145.69;100.00
1726;BME280;41776;48.260;8.928;2023-04-21T08:19:27;52525.59;;;-145.69;100.00
1726;BME280;41776;48.260;8.928;2023-04-21T08:21:54;52531.53;;;-145.69;100.00
1726;BME280;41776;48.260;8.928;2023-04-21T08:24:21;52537.47;;;-145.69;100.00
1726;BME280;41776;48.260;8.928;2023-04-21T08:26:47;52531.53;;;-145.69;100.00
1726;BME280;41776;48.260;8.928;2023-04-21T08:29:14;52559.25;;;-145.69;100.00
1726;BME280;41776;48.260;8.928;2023-04-21T08:31:43;52535.47;;;-145.69;100.00
1726;BME280;41776;48.260;8.928;2023-04-21T08:34:10;52531.53;;;-145.69;100.00
1726;BME280;41776;48.260;8.928;2023-04-21T08:36:38;52527.56;;;-145.69;100.00
1726;BME280;41776;48.260;8.928;2023-04-21T08:39:05;52549.34;;;-145.69;100.00
1726;BME280;41776;48.260;8.928;2023-04-21T08:41:32;52539.44;;;-145.69;100.00
1726;BME280;41776;48.260;8.928;2023-04-21T08:43:58;52539.44;;;-145.69;100.00
1726;BME280;41776;48.260;8.928;2023-04-21T08:46:26;52531.53;;;-145.69;100.00
1726;BME280;41776;48.260;8.928;2023-04-21T08:48:57;52531.53;;;-145.69;100.00
1726;BME280;41776;48.260;8.928;2023-04-21T08:51:26;52581.03;;;-145.69;100.00
1726;BME280;41776;48.260;8.928;2023-04-21T08:53:54;52541.44;;;-145.69;100.00
1726;BME280;41776;48.260;8.928;2023-04-21T08:56:23;52549.34;;;-145.69;100.00
1726;BME280;41776;48.260;8.928;2023-04-21T08:58:50;52521.63;;;-145.69;100.00
1726;BME280;41776;48.260;8.928;2023-04-21T09:01:16;52531.53;;;-145.69;100.00
1726;BME280;41776;48.260;8.928;2023-04-21T09:03:43;52573.13;;;-145.69;100.00
1726;BME280;41776;48.260;8.928;2023-04-21T09:06:11;52531.53;;;-145.69;100.00
1726;BME280;41776;48.260;8.928;2023-04-21T09:08:41;52563.22;;;-145.69;100.00
1726;BME280;41776;48.260;8.928;2023-04-21T09:11:07;52545.38;;;-145.69;100.00
1726;BME280;41776;48.260;8.928;2023-04-21T09:13:38;52495.88;;;-145.69;100.00
1726;BME280;41776;48.260;8.928;2023-04-21T09:16:14;52515.69;;;-145.69;100.00
1726;BME280;41776;48.260;8.928;2023-04-21T09:18:41;52537.47;;;-145.69;100.00
1726;BME280;41776;48.260;8.928;2023-04-21T09:21:11;52503.81;;;-145.69;100.00
1726;BME280;41776;48.260;8.928;2023-04-21T09:23:39;52545.38;;;-145.69;100.00
1726;BME280;41776;48.260;8.928;2023-04-21T09:26:06;52543.41;;;-145.69;100.00
1726;BME280;41776;48.260;8.928;2023-04-21T09:28:32;52505.78;;;-145.69;100.00
1726;BME280;41776;48.260;8.928;2023-04-21T09:30:59;52535.47;;;-145.69;100.00
1726;BME280;41776;48.260;8.928;2023-04-21T09:33:26;52537.47;;;-145.69;100.00
1726;BME280;41776;48.260;8.928;2023-04-21T09:35:53;52499.84;;;-145.69;100.00
1726;BME280;41776;48.260;8.928;2023-04-21T09:38:21;52529.53;;;-145.69;100.00
1726;BME280;41776;48.260;8.928;2023-04-21T09:40:55;52503.81;;;-145.69;100.00
1726;BME280;41776;48.260;8.928;2023-04-21T09:43:22;52501.81;;;-145.69;100.00
1726;BME280;41776;48.260;8.928;2023-04-21T09:45:52;52529.53;;;-145.69;100.00
1726;BME280;41776;48.260;8.928;2023-04-21T09:48:23;52519.63;;;-145.69;100.00
1726;BME280;41776;48.260;8.928;2023-04-21T09:50:53;52527.56;;;-145.69;100.00
1726;BME280;41776;48.260;8.928;2023-04-21T09:53:23;52495.88;;;-145.69;100.00
1726;BME280;41776;48.260;8.928;2023-04-21T09:55:53;52480.03;;;-145.69;100.00
1726;BME280;41776;48.260;8.928;2023-04-21T09:58:22;52509.75;;;-145.69;100.00
1726;BME280;41776;48.260;8.928;2023-04-21T10:00:53;52529.53;;;-145.69;100.00
1726;BME280;41776;48.260;8.928;2023-04-21T10:03:26;52462.22;;;-145.69;100.00
1726;BME280;41776;48.260;8.928;2023-04-21T10:05:55;52487.97;;;-145.69;100.00
1726;BME280;41776;48.260;8.928;2023-04-21T10:08:23;52468.16;;;-145.69;100.00
1726;BME280;41776;48.260;8.928;2023-04-21T10:10:49;52480.03;;;-145.69;100.00
1726;BME280;41776;48.260;8.928;2023-04-21T10:13:18;52485.97;;;-145.69;100.00
1726;BME280;41776;48.260;8.928;2023-04-21T10:15:45;52444.38;;;-145.69;100.00
1726;BME280;41776;48.260;8.928;2023-04-21T10:18:15;52464.19;;;-145.69;100.00
1726;BME280;41776;48.260;8.928;2023-04-21T10:21:02;52472.13;;;-145.69;100.00
1726;BME280;41776;48.260;8.928;2023-04-21T10:23:36;52440.44;;;-145.69;100.00
1726;BME280;41776;48.260;8.928;2023-04-21T10:26:05;52452.31;;;-145.69;100.00
1726;BME280;41776;48.260;8.928;2023-04-21T10:28:39;52456.28;;;-145.69;100.00
1726;BME280;41776;48.260;8.928;2023-04-21T10:31:31;52476.06;;;-145.69;91.63
1726;BME280;41776;48.260;8.928;2023-04-21T10:34:18;52478.06;;;-145.69;100.00
1726;BME280;41776;48.260;8.928;2023-04-21T10:37:12;52440.44;;;-145.69;100.00
1726;BME280;41776;48.260;8.928;2023-04-21T10:39:59;52450.31;;;-145.69;90.54
1726;BME280;41776;48.260;8.928;2023-04-21T10:42:28;52436.47;;;-145.69;88.19
1726;BME280;41776;48.260;8.928;2023-04-21T10:45:10;52478.06;;;-145.69;95.36
1726;BME280;41776;48.260;8.928;2023-04-21T10:47:39;52472.13;;;-145.69;92.33
1726;BME280;41776;48.260;8.928;2023-04-21T10:50:11;52434.47;;;-145.69;95.59
1726;BME280;41776;48.260;8.928;2023-04-21T10:52:55;52446.38;;;-145.69;93.50
1726;BME280;41776;48.260;8.928;2023-04-21T10:55:26;52478.06;;;-145.69;85.17
1726;BME280;41776;48.260;8.928;2023-04-21T10:57:53;52428.53;;;-145.69;94.01
1726;BME280;41776;48.260;8.928;2023-04-21T11:00:23;52444.38;;;-145.69;90.37
1726;BME280;41776;48.260;8.928;2023-04-21T11:02:55;52436.47;;;-145.69;84.53
1726;BME280;41776;48.260;8.928;2023-04-21T11:05:29;52412.69;;;-145.69;85.54
1726;BME280;41776;48.260;8.928;2023-04-21T11:08:09;52410.72;;;-145.69;82.20
1726;BME280;41776;48.260;8.928;2023-04-21T11:11:02;52426.56;;;-145.69;81.29
1726;BME280;41776;48.260;8.928;2023-04-21T11:13:28;52420.63;;;-145.69;81.01
1726;BME280;41776;48.260;8.928;2023-04-21T11:16:03;52458.25;;;-145.69;83.64
1726;BME280;41776;48.260;8.928;2023-04-21T11:18:40;52430.53;;;-145.69;76.98
1726;BME280;41776;48.260;8.928;2023-04-21T11:21:08;52392.91;;;-145.69;75.94
1726;BME280;41776;48.260;8.928;2023-04-21T11:23:38;52460.22;;;-145.69;67.73
1726;BME280;41776;48.260;8.928;2023-04-21T11:26:06;52386.97;;;-145.69;82.28
1726;BME280;41776;48.260;8.928;2023-04-21T11:28:33;52402.78;;;-145.69;77.03
1726;BME280;41776;48.260;8.928;2023-04-21T11:30:59;52412.69;;;-145.69;73.57
1726;BME280;41776;48.260;8.928;2023-04-21T11:33:27;52388.94;;;-145.69;72.92
1726;BME280;41776;48.260;8.928;2023-04-21T11:35:54;52388.94;;;-145.69;71.26
1726;BME280;41776;48.260;8.928;2023-04-21T11:38:23;52390.91;;;-145.69;66.41
1726;BME280;41776;48.260;8.928;2023-04-21T11:40:50;52392.91;;;-145.69;78.43
1726;BME280;41776;48.260;8.928;2023-04-21T11:43:19;52412.69;;;-145.69;68.40
1726;BME280;41776;48.260;8.928;2023-04-21T11:45:48;52381.00;;;-145.69;75.08
1726;BME280;41776;48.260;8.928;2023-04-21T11:48:15;52373.09;;;-145.69;84.86
1726;BME280;41776;48.260;8.928;2023-04-21T11:50:46;52408.75;;;-145.69;69.72
1726;BME280;41776;48.260;8.928;2023-04-21T11:53:13;52381.00;;;-145.69;67.87
1726;BME280;41776;48.260;8.928;2023-04-21T11:55:41;52375.06;;;-145.69;72.54
1726;BME280;41776;48.260;8.928;2023-04-21T11:58:08;52377.06;;;-145.69;80.01
1726;BME280;41776;48.260;8.928;2023-04-21T12:00:36;52388.94;;;-145.69;57.53
1726;BME280;41776;48.260;8.928;2023-04-21T12:03:07;52381.00;;;-145.69;77.10
1726;BME280;41776;48.260;8.928;2023-04-21T12:05:34;52377.06;;;-145.69;62.57
1726;BME280;41776;48.260;8.928;2023-04-21T12:08:01;52408.75;;;-145.69;61.70
1726;BME280;41776;48.260;8.928;2023-04-21T12:10:28;52369.13;;;-145.69;64.98
1726;BME280;41776;48.260;8.928;2023-04-21T12:12:55;52371.13;;;-145.69;63.58
1726;BME280;41776;48.260;8.928;2023-04-21T12:15:22;52357.25;;;-145.69;60.91
1726;BME280;41776;48.260;8.928;2023-04-21T12:17:51;52396.84;;;-145.69;64.72
1726;BME280;41776;48.260;8.928;2023-04-21T12:20:19;52367.16;;;-145.69;55.89
1726;BME280;41776;48.260;8.928;2023-04-21T12:22:46;52369.13;;;-145.69;65.86
1726;BME280;41776;48.260;8.928;2023-04-21T12:25:13;52363.19;;;-145.69;59.52
1726;BME280;41776;48.260;8.928;2023-04-21T12:27:47;52351.31;;;-145.69;54.33
1726;BME280;41776;48.260;8.928;2023-04-21T12:30:14;52365.16;;;-145.69;54.61
1726;BME280;41776;48.260;8.928;2023-04-21T12:32:41;52343.38;;;-145.69;56.46
1726;BME280;41776;48.260;8.928;2023-04-21T12:35:09;52341.41;;;-145.69;59.29
1726;BME280;41776;48.260;8.928;2023-04-21T12:37:36;52357.25;;;-145.69;51.45
1726;BME280;41776;48.260;8.928;2023-04-21T12:40:03;52329.53;;;-145.69;51.61
1726;BME280;41776;48.260;8.928;2023-04-21T12:42:31;52333.47;;;-145.69;54.04
1726;BME280;41776;48.260;8.928;2023-04-21T12:44:57;52325.56;;;-145.69;61.26
1726;BME280;41776;48.260;8.928;2023-04-21T12:47:24;52311.69;;;-145.69;54.13
1726;BME280;41776;48.260;8.928;2023-04-21T12:49:50;52317.66;;;-145.69;49.92